createdAt,value
2023-03-16T00:01:52.017Z,5.50
2023-03-16T00:03:55.372Z,5.93
2023-03-16T00:05:59.468Z,6.03
2023-03-16T00:08:04.290Z,5.73
2023-03-16T00:10:09.251Z,5.00
2023-03-16T00:12:16.288Z,4.17
2023-03-16T00:14:20.011Z,3.93
2023-03-16T00:16:23.814Z,4.10
2023-03-16T00:18:28.264Z,4.57
2023-03-16T00:20:34.916Z,4.30
2023-03-16T00:22:38.316Z,4.60
2023-03-16T00:24:44.349Z,4.57
2023-03-16T00:26:48.075Z,5.03
2023-03-16T00:28:54.385Z,5.50
2023-03-16T00:30:59.925Z,5.20
2023-03-16T00:33:05.073Z,6.40
2023-03-16T00:35:09.643Z,6.70
2023-03-16T00:37:19.960Z,7.37
2023-03-16T00:39:23.721Z,7.53
2023-03-16T00:41:28.837Z,7.40
2023-03-16T00:43:32.178Z,7.90
2023-03-16T00:45:36.435Z,7.47
2023-03-16T00:47:42.236Z,7.97
2023-03-16T00:49:46.131Z,8.33
2023-03-16T00:51:49.581Z,7.80
2023-03-16T00:53:52.977Z,7.27
2023-03-16T00:55:56.361Z,8.30
2023-03-16T00:58:05.251Z,7.80
2023-03-16T01:00:13.011Z,7.47
2023-03-16T01:02:17.490Z,7.57
2023-03-16T01:04:20.915Z,7.80
2023-03-16T01:06:24.201Z,8.30
2023-03-16T01:08:28.144Z,8.10
2023-03-16T01:10:32.127Z,9.00
2023-03-16T01:12:35.559Z,8.10
2023-03-16T01:14:41.389Z,8.43
2023-03-16T01:16:46.068Z,8.37
2023-03-16T01:18:49.908Z,8.43
2023-03-16T01:20:53.557Z,8.57
2023-03-16T01:22:56.774Z,9.00
2023-03-16T01:25:00.160Z,8.87
2023-03-16T01:27:03.480Z,8.77
2023-03-16T01:29:07.090Z,8.63
2023-03-16T01:31:14.833Z,9.43
2023-03-16T01:33:18.903Z,8.97
2023-03-16T01:35:23.007Z,9.07
2023-03-16T01:37:27.087Z,8.70
2023-03-16T01:39:30.943Z,9.00
2023-03-16T01:41:34.079Z,8.93
2023-03-16T01:43:38.627Z,8.87
2023-03-16T01:46:18.306Z,8.77
2023-03-16T01:48:24.131Z,8.50
2023-03-16T01:50:28.847Z,9.77
2023-03-16T01:52:33.965Z,9.50
2023-03-16T01:54:38.677Z,10.00
2023-03-16T01:56:44.827Z,9.90
2023-03-16T01:58:48.628Z,9.63
2023-03-16T02:00:57.952Z,9.10
2023-03-16T02:03:06.404Z,9.27
2023-03-16T02:05:12.547Z,9.47
2023-03-16T02:07:17.306Z,9.03
2023-03-16T02:09:25.299Z,8.40
2023-03-16T02:11:28.677Z,9.50
2023-03-16T02:13:38.823Z,9.87
2023-03-16T02:15:42.203Z,8.83
2023-03-16T02:17:47.514Z,9.80
2023-03-16T02:19:55.297Z,9.53
2023-03-16T02:22:02.197Z,10.37
2023-03-16T02:24:05.818Z,9.67
2023-03-16T02:26:14.631Z,9.70
2023-03-16T02:28:21.146Z,9.90
2023-03-16T02:30:26.323Z,9.50
2023-03-16T02:32:32.244Z,8.87
2023-03-16T02:34:35.723Z,9.37
2023-03-16T02:36:39.867Z,9.33
2023-03-16T02:38:44.390Z,9.17
2023-03-16T02:40:48.443Z,9.10
2023-03-16T02:42:55.164Z,9.57
2023-03-16T02:44:59.711Z,9.37
2023-03-16T02:47:07.071Z,10.07
2023-03-16T02:49:16.419Z,9.37
2023-03-16T02:51:21.043Z,9.50
2023-03-16T02:53:24.831Z,9.80
2023-03-16T02:55:28.153Z,9.23
2023-03-16T02:57:37.095Z,9.67
2023-03-16T02:59:41.735Z,9.23
2023-03-16T03:01:45.332Z,10.00
2023-03-16T03:03:50.197Z,8.83
2023-03-16T03:05:53.629Z,9.23
2023-03-16T03:07:57.087Z,9.63
2023-03-16T03:10:06.139Z,8.90
2023-03-16T03:12:10.399Z,8.63
2023-03-16T03:14:17.003Z,8.87
2023-03-16T03:16:24.022Z,9.07
2023-03-16T03:18:27.501Z,9.73
2023-03-16T03:20:33.255Z,8.70
2023-03-16T03:22:41.416Z,8.77
2023-03-16T03:24:44.807Z,9.77
2023-03-16T03:26:48.423Z,9.37
2023-03-16T03:28:53.854Z,9.30
2023-03-16T03:30:57.350Z,9.20
2023-03-16T03:33:01.661Z,9.93
2023-03-16T03:35:19.229Z,8.83
2023-03-16T03:37:24.678Z,9.07
2023-03-16T03:39:28.359Z,10.17
2023-03-16T03:41:38.822Z,10.27
2023-03-16T03:43:42.274Z,9.93
2023-03-16T03:45:46.132Z,10.83
2023-03-16T03:47:49.619Z,10.17
2023-03-16T03:49:53.242Z,9.67
2023-03-16T03:52:00.049Z,9.77
2023-03-16T03:54:04.982Z,9.50
2023-03-16T03:56:08.900Z,9.10
2023-03-16T03:58:12.890Z,10.13
2023-03-16T04:00:20.933Z,9.70
2023-03-16T04:02:24.457Z,9.10
2023-03-16T04:04:29.540Z,8.47
2023-03-16T04:06:33.247Z,9.40
2023-03-16T04:08:36.764Z,9.30
2023-03-16T04:10:41.606Z,8.63
2023-03-16T04:12:46.603Z,9.00
2023-03-16T04:14:50.066Z,8.40
2023-03-16T04:16:55.392Z,8.67
2023-03-16T04:18:59.155Z,9.03
2023-03-16T04:21:03.006Z,8.67
2023-03-16T04:23:14.987Z,8.67
2023-03-16T04:25:19.305Z,7.73
2023-03-16T04:27:24.135Z,8.23
2023-03-16T04:29:28.388Z,7.93
2023-03-16T04:31:31.783Z,8.97
2023-03-16T04:33:35.480Z,8.33
2023-03-16T04:35:41.724Z,8.10
2023-03-16T04:37:45.529Z,8.97
2023-03-16T04:39:49.078Z,8.50
2023-03-16T04:41:52.828Z,8.03
2023-03-16T04:43:58.819Z,8.10
2023-03-16T04:46:02.281Z,9.13
2023-03-16T04:48:08.448Z,8.40
2023-03-16T04:50:12.824Z,8.77
2023-03-16T04:52:16.371Z,8.37
2023-03-16T04:54:33.705Z,9.27
2023-03-16T04:56:44.451Z,8.33
2023-03-16T04:58:47.906Z,8.97
2023-03-16T05:00:55.529Z,8.87
2023-03-16T05:02:59.537Z,8.37
2023-03-16T05:05:03.769Z,8.30
2023-03-16T05:07:09.322Z,8.53
2023-03-16T05:09:14.148Z,8.07
2023-03-16T05:11:17.691Z,8.40
2023-03-16T05:13:21.313Z,7.77
2023-03-16T05:15:25.135Z,8.53
2023-03-16T05:17:30.198Z,8.77
2023-03-16T05:19:34.075Z,8.20
2023-03-16T05:21:38.874Z,8.30
2023-03-16T05:23:42.909Z,9.10
2023-03-16T05:25:47.350Z,8.63
2023-03-16T05:27:52.159Z,8.33
2023-03-16T05:29:55.715Z,8.87
2023-03-16T05:31:59.849Z,9.13
2023-03-16T05:34:04.878Z,8.13
2023-03-16T05:36:09.996Z,8.67
2023-03-16T05:38:13.919Z,9.00
2023-03-16T05:40:18.639Z,9.10
2023-03-16T05:42:22.482Z,9.30
2023-03-16T05:44:26.529Z,8.50
2023-03-16T05:46:30.392Z,9.23
2023-03-16T05:48:35.785Z,8.70
2023-03-16T05:50:40.752Z,8.73
2023-03-16T05:52:44.979Z,8.67
2023-03-16T05:54:48.907Z,8.67
2023-03-16T05:56:53.372Z,9.03
2023-03-16T05:58:57.064Z,9.23
2023-03-16T06:01:02.493Z,8.70
2023-03-16T06:03:06.717Z,9.20
2023-03-16T06:05:11.413Z,9.03
2023-03-16T06:07:16.758Z,9.23
2023-03-16T06:09:20.736Z,9.50
2023-03-16T06:11:24.379Z,9.43
2023-03-16T06:13:28.029Z,8.93
2023-03-16T06:15:31.941Z,9.10
2023-03-16T06:17:35.701Z,9.57
2023-03-16T06:19:39.363Z,9.33
2023-03-16T06:22:25.216Z,8.80
2023-03-16T06:24:30.542Z,9.63
2023-03-16T06:26:34.689Z,8.43
2023-03-16T06:28:39.499Z,9.53
2023-03-16T06:30:56.560Z,9.70
2023-03-16T06:33:00.468Z,8.87
2023-03-16T06:35:07.006Z,9.53
2023-03-16T06:37:16.643Z,9.33
2023-03-16T06:39:21.746Z,9.00
2023-03-16T06:41:26.943Z,9.70
2023-03-16T06:43:30.812Z,9.30
2023-03-16T06:45:35.061Z,9.20
2023-03-16T06:47:39.652Z,9.70
2023-03-16T06:49:43.832Z,10.27
2023-03-16T06:51:48.392Z,10.23
2023-03-16T06:53:52.140Z,8.80
2023-03-16T06:59:13.686Z,9.10
2023-03-16T07:01:18.016Z,9.63
2023-03-16T07:03:22.349Z,9.43
2023-03-16T07:05:25.960Z,9.77
2023-03-16T07:08:24.966Z,9.80
2023-03-16T07:10:28.903Z,9.40
2023-03-16T07:12:33.166Z,9.40
2023-03-16T07:14:38.580Z,8.67
2023-03-16T07:17:35.313Z,10.50
2023-03-16T07:19:39.168Z,9.43
2023-03-16T07:21:42.892Z,9.53
2023-03-16T07:23:46.856Z,10.03
2023-03-16T07:29:07.963Z,10.10
2023-03-16T07:31:13.415Z,10.10
2023-03-16T07:33:17.228Z,10.43
2023-03-16T07:35:22.831Z,10.60
2023-03-16T07:37:26.215Z,10.00
2023-03-16T07:39:29.796Z,10.27
2023-03-16T07:42:26.429Z,10.10
2023-03-16T07:44:30.244Z,10.47
2023-03-16T07:46:35.529Z,10.80
2023-03-16T07:52:08.370Z,10.30
2023-03-16T07:54:12.026Z,10.87
2023-03-16T07:56:15.513Z,10.67
2023-03-16T07:58:19.202Z,10.53
2023-03-16T08:00:26.086Z,10.47
2023-03-16T08:02:31.426Z,10.40
2023-03-16T08:04:35.101Z,10.60
2023-03-16T08:06:38.849Z,10.80
2023-03-16T08:12:11.559Z,10.17
2023-03-16T08:14:15.282Z,11.33
2023-03-16T08:16:21.888Z,10.77
2023-03-16T08:18:27.307Z,10.53
2023-03-16T08:20:31.954Z,10.67
2023-03-16T08:22:37.332Z,10.43
2023-03-16T08:24:40.972Z,11.07
2023-03-16T08:27:44.174Z,10.80
2023-03-16T08:29:48.359Z,10.97
2023-03-16T08:31:51.958Z,10.90
2023-03-16T08:33:56.726Z,10.90
2023-03-16T08:36:00.793Z,10.97
2023-03-16T08:38:04.658Z,10.57
2023-03-16T08:40:10.969Z,11.00
2023-03-16T08:42:16.518Z,10.87
2023-03-16T08:44:21.598Z,10.30
2023-03-16T08:46:25.540Z,10.37
2023-03-16T08:48:29.518Z,10.57
2023-03-16T08:50:34.907Z,10.90
2023-03-16T08:52:38.419Z,10.33
2023-03-16T08:55:03.927Z,10.03
2023-03-16T08:57:08.159Z,9.87
2023-03-16T08:59:27.059Z,9.80
2023-03-16T09:01:34.239Z,9.90
2023-03-16T09:04:18.624Z,10.33
2023-03-16T09:06:24.593Z,9.80
2023-03-16T09:08:28.676Z,9.63
2023-03-16T09:10:33.590Z,9.80
2023-03-16T09:12:37.558Z,9.37
2023-03-16T09:14:41.526Z,8.75
2023-03-16T09:16:47.634Z,9.07
2023-03-16T09:18:51.849Z,8.73
2023-03-16T09:21:00.088Z,8.15
2023-03-16T09:23:05.897Z,8.82
2023-03-16T09:25:11.650Z,8.85
2023-03-16T09:29:16.672Z,8.65
2023-03-16T09:31:21.239Z,8.23
2023-03-16T09:33:25.225Z,8.85
2023-03-16T09:35:35.945Z,8.25
2023-03-16T09:37:45.436Z,8.30
2023-03-16T09:39:58.050Z,8.13
2023-03-16T09:42:07.850Z,8.77
2023-03-16T09:44:17.678Z,8.10
2023-03-16T09:46:27.307Z,8.50
2023-03-16T09:48:31.231Z,9.13
2023-03-16T09:50:47.730Z,8.07
2023-03-16T09:52:56.927Z,8.68
2023-03-16T09:55:03.853Z,8.88
2023-03-16T09:57:07.698Z,8.13
2023-03-16T09:59:13.559Z,8.43
2023-03-16T10:01:22.511Z,7.45
2023-03-16T10:04:28.264Z,8.15
2023-03-16T10:06:33.423Z,7.88
2023-03-16T10:08:38.952Z,8.10
2023-03-16T10:11:04.182Z,7.13
2023-03-16T10:13:09.774Z,6.10
2023-03-16T10:15:14.495Z,6.93
2023-03-16T10:17:19.066Z,6.90
2023-03-16T10:19:34.573Z,6.65
2023-03-16T10:21:40.594Z,6.53
2023-03-16T10:23:44.141Z,6.80
2023-03-16T10:25:49.195Z,6.07
2023-03-16T10:27:54.430Z,5.28
2023-03-16T10:29:57.895Z,6.03
2023-03-16T10:32:02.581Z,5.80
2023-03-16T10:34:07.649Z,5.75
2023-03-16T10:36:15.901Z,6.13
2023-03-16T10:38:30.681Z,6.63
2023-03-16T10:40:38.744Z,5.55
2023-03-16T10:42:42.273Z,5.28
2023-03-16T10:44:47.430Z,5.70
2023-03-16T10:46:54.536Z,6.07
2023-03-16T10:49:00.993Z,5.10
2023-03-16T10:51:08.113Z,5.68
2023-03-16T10:53:17.925Z,6.05
2023-03-16T10:55:22.764Z,5.28
2023-03-16T10:57:27.716Z,6.00
2023-03-16T10:59:34.558Z,6.00
2023-03-16T11:01:39.742Z,5.90
2023-03-16T11:03:43.339Z,6.15
2023-03-16T11:05:47.353Z,6.05
2023-03-16T11:07:51.258Z,6.30
2023-03-16T11:09:55.147Z,5.70
2023-03-16T11:11:58.712Z,6.00
2023-03-16T11:14:04.818Z,5.68
2023-03-16T11:16:17.717Z,5.40
2023-03-16T11:18:29.670Z,5.28
2023-03-16T11:20:34.437Z,6.13
2023-03-16T11:22:41.886Z,5.93
2023-03-16T11:24:47.909Z,5.85
2023-03-16T11:26:55.894Z,5.65
2023-03-16T11:29:04.589Z,6.28
2023-03-16T11:31:14.878Z,6.43
2023-03-16T11:33:18.537Z,6.30
2023-03-16T11:35:26.076Z,6.32
2023-03-16T11:37:41.046Z,6.00
2023-03-16T11:39:48.267Z,5.68
2023-03-16T11:41:58.384Z,5.93
2023-03-16T11:44:03.753Z,6.10
2023-03-16T11:46:11.949Z,6.20
2023-03-16T11:48:24.088Z,5.68
2023-03-16T11:50:31.209Z,6.03
2023-03-16T11:52:42.006Z,5.88
2023-03-16T11:54:53.261Z,5.68
2023-03-16T11:56:58.990Z,5.63
2023-03-16T12:00:01.176Z,5.55
2023-03-16T12:02:22.171Z,5.63
2023-03-16T12:04:41.579Z,6.05
2023-03-16T12:07:05.917Z,5.28
2023-03-16T12:09:23.110Z,5.53
2023-03-16T12:11:28.845Z,4.95
2023-03-16T12:13:39.522Z,5.40
2023-03-16T12:15:45.200Z,5.35
2023-03-16T12:17:51.081Z,5.03
2023-03-16T12:19:55.940Z,5.20
2023-03-16T12:22:08.852Z,4.78
2023-03-16T12:24:13.920Z,4.95
2023-03-16T12:26:18.239Z,5.10
2023-03-16T12:28:25.521Z,5.57
2023-03-16T12:30:38.280Z,5.28
2023-03-16T12:32:45.476Z,5.75
2023-03-16T12:34:50.699Z,5.20
2023-03-16T12:37:24.426Z,5.13
2023-03-16T12:39:49.239Z,5.40
2023-03-16T12:41:59.694Z,5.28
2023-03-16T12:44:12.683Z,5.07
2023-03-16T12:46:18.898Z,5.32
2023-03-16T12:48:27.326Z,4.90
2023-03-16T12:50:36.435Z,4.78
2023-03-16T12:52:48.492Z,4.50
2023-03-16T12:55:10.132Z,4.55
2023-03-16T12:57:17.000Z,4.78
2023-03-16T12:59:24.099Z,4.90
2023-03-16T13:01:29.357Z,4.78
2023-03-16T13:03:32.982Z,4.35
2023-03-16T13:05:36.914Z,4.90
2023-03-16T13:07:49.694Z,5.65
2023-03-16T13:09:54.304Z,4.82
2023-03-16T13:11:58.037Z,5.35
2023-03-16T13:14:12.349Z,4.55
2023-03-16T13:16:25.667Z,4.90
2023-03-16T13:18:35.686Z,4.40
2023-03-16T13:20:52.124Z,4.50
2023-03-16T13:25:44.479Z,4.80
2023-03-16T13:27:49.368Z,4.10
2023-03-16T13:29:57.585Z,3.95
2023-03-16T13:32:04.545Z,4.00
2023-03-16T13:34:08.585Z,4.55
2023-03-16T13:36:12.640Z,3.88
2023-03-16T13:38:16.907Z,3.90
2023-03-16T13:40:24.175Z,3.75
2023-03-16T13:42:31.615Z,4.18
2023-03-16T13:44:36.037Z,4.18
2023-03-16T13:46:39.794Z,4.60
2023-03-16T13:48:43.708Z,4.28
2023-03-16T13:50:49.911Z,3.90
2023-03-16T13:52:58.436Z,3.85
2023-03-16T13:55:02.660Z,3.83
2023-03-16T13:57:07.650Z,4.13
2023-03-16T13:59:12.936Z,4.25
2023-03-16T14:01:21.680Z,3.90
2023-03-16T14:03:26.366Z,4.60
2023-03-16T14:05:31.998Z,4.32
2023-03-16T14:07:38.921Z,4.38
2023-03-16T14:09:43.601Z,4.03
2023-03-16T14:11:48.785Z,4.70
2023-03-16T14:13:54.802Z,4.97
2023-03-16T14:16:01.404Z,4.30
2023-03-16T14:18:14.138Z,3.80
2023-03-16T14:20:20.574Z,5.55
2023-03-16T14:22:30.644Z,6.10
2023-03-16T14:24:35.403Z,6.10
2023-03-16T14:26:42.214Z,6.20
2023-03-16T14:28:57.576Z,5.93
2023-03-16T14:31:07.026Z,6.03
2023-03-16T14:33:31.788Z,5.70
2023-03-16T14:35:41.697Z,4.15
2023-03-16T14:37:45.675Z,4.15
2023-03-16T14:39:59.953Z,5.43
2023-03-16T14:42:05.306Z,5.15
2023-03-16T14:44:19.366Z,5.13
2023-03-16T14:49:09.053Z,5.50
2023-03-16T14:51:14.028Z,5.55
2023-03-16T14:53:18.057Z,5.68
2023-03-16T14:55:25.227Z,5.25
2023-03-16T14:57:29.042Z,5.55
2023-03-16T14:59:33.004Z,5.40
2023-03-16T15:01:38.977Z,5.15
2023-03-16T15:03:43.655Z,4.88
2023-03-16T15:05:50.642Z,5.63
2023-03-16T15:07:55.447Z,5.60
2023-03-16T15:10:10.320Z,5.40
2023-03-16T15:12:16.005Z,5.55
2023-03-16T15:14:39.908Z,5.63
2023-03-16T15:16:44.141Z,5.45
2023-03-16T15:18:47.830Z,5.35
2023-03-16T15:20:54.138Z,5.28
2023-03-16T15:22:58.837Z,5.22
2023-03-16T15:25:02.976Z,5.32
2023-03-16T15:27:25.517Z,4.95
2023-03-16T15:29:31.440Z,5.10
2023-03-16T15:31:37.644Z,4.72
2023-03-16T15:33:41.373Z,4.93
2023-03-16T15:35:45.472Z,5.15
2023-03-16T15:37:50.669Z,4.75
2023-03-16T15:39:54.605Z,4.53
2023-03-16T15:42:01.054Z,4.85
2023-03-16T15:44:06.230Z,4.82
2023-03-16T15:46:11.428Z,4.65
2023-03-16T15:48:15.434Z,4.65
2023-03-16T15:50:21.040Z,4.32
2023-03-16T15:52:28.416Z,4.45
2023-03-16T15:54:34.038Z,4.20
2023-03-16T15:56:52.855Z,4.00
2023-03-16T15:58:58.021Z,3.83
2023-03-16T16:01:05.488Z,4.55
2023-03-16T16:03:11.667Z,3.70
2023-03-16T16:05:16.053Z,3.88
2023-03-16T16:07:20.038Z,3.88
2023-03-16T16:09:24.086Z,3.63
2023-03-16T16:11:29.839Z,4.03
2023-03-16T16:13:44.190Z,3.42
2023-03-16T16:15:49.046Z,3.17
2023-03-16T16:18:18.665Z,3.28
2023-03-16T16:20:20.809Z,3.25
2023-03-16T16:22:24.886Z,3.05
2023-03-16T16:24:29.146Z,3.47
2023-03-16T16:26:52.164Z,2.65
2023-03-16T16:28:58.761Z,3.50
2023-03-16T16:31:02.822Z,2.88
2023-03-16T16:33:24.722Z,3.20
2023-03-16T16:35:30.873Z,2.75
2023-03-16T16:37:35.242Z,2.80
2023-03-16T16:39:39.569Z,3.03
2023-03-16T16:41:44.928Z,2.75
2023-03-16T16:43:48.803Z,2.97
2023-03-16T16:45:55.714Z,3.22
2023-03-16T16:47:59.975Z,3.00
2023-03-16T16:50:03.507Z,2.83
2023-03-16T16:52:07.812Z,3.00
2023-03-16T16:54:20.680Z,3.13
2023-03-16T16:56:28.167Z,2.90
2023-03-16T16:58:33.467Z,2.72
2023-03-16T17:00:39.727Z,2.83
2023-03-16T17:02:45.836Z,2.63
2023-03-16T17:04:52.491Z,2.50
2023-03-16T17:07:02.332Z,2.47
2023-03-16T17:09:07.835Z,2.53
2023-03-16T17:11:14.480Z,2.90
2023-03-16T17:13:28.026Z,2.92
2023-03-16T17:15:33.272Z,2.38
2023-03-16T17:17:37.381Z,2.42
2023-03-16T17:19:40.998Z,2.25
2023-03-16T17:21:45.790Z,2.70
2023-03-16T17:23:49.729Z,2.78
2023-03-16T17:25:53.793Z,2.97
2023-03-16T17:27:58.355Z,3.35
2023-03-16T17:30:02.048Z,2.45
2023-03-16T17:32:15.245Z,2.45
2023-03-16T17:34:19.657Z,2.58
2023-03-16T17:36:24.544Z,2.63
2023-03-16T17:38:28.910Z,2.28
2023-03-16T17:40:33.987Z,2.42
2023-03-16T17:42:37.770Z,2.10
2023-03-16T17:44:56.577Z,2.20
2023-03-16T17:47:00.747Z,2.15
2023-03-16T17:49:12.594Z,2.20
2023-03-16T17:51:16.756Z,2.22
2023-03-16T17:53:20.969Z,2.20
2023-03-16T17:55:24.898Z,2.55
2023-03-16T17:57:30.734Z,3.15
2023-03-16T17:59:36.469Z,3.33
2023-03-16T18:01:40.091Z,5.30
2023-03-16T18:03:46.206Z,5.93
2023-03-16T18:05:51.869Z,3.13
2023-03-16T18:07:55.672Z,3.08
2023-03-16T18:10:02.622Z,2.80
2023-03-16T18:12:07.385Z,2.78
2023-03-16T18:14:15.551Z,2.78
2023-03-16T18:16:23.386Z,3.15
2023-03-16T18:18:28.551Z,3.10
2023-03-16T18:20:55.046Z,3.28
2023-03-16T18:23:02.884Z,3.25
2023-03-16T18:25:12.141Z,3.05
2023-03-16T18:27:16.143Z,3.00
2023-03-16T18:29:20.167Z,2.85
2023-03-16T18:31:25.256Z,3.03
2023-03-16T18:33:30.398Z,2.97
2023-03-16T18:35:37.924Z,3.25
2023-03-16T18:41:16.464Z,3.88
2023-03-16T18:43:20.353Z,3.88
2023-03-16T18:45:24.400Z,3.75
2023-03-16T18:47:31.822Z,3.38
2023-03-16T18:51:36.964Z,3.60
2023-03-16T18:53:40.966Z,3.35
2023-03-16T18:55:45.413Z,3.08
2023-03-16T18:58:12.005Z,3.00
2023-03-16T19:00:20.451Z,3.45
2023-03-16T19:02:29.985Z,3.13
2023-03-16T19:04:34.320Z,3.35
2023-03-16T19:06:38.421Z,3.28
2023-03-16T19:08:42.138Z,3.30
2023-03-16T19:10:49.265Z,3.35
2023-03-16T19:12:53.518Z,3.42
2023-03-16T19:15:36.645Z,3.05
2023-03-16T19:17:42.183Z,3.28
2023-03-16T19:19:45.553Z,3.10
2023-03-16T19:21:49.218Z,3.67
2023-03-16T19:23:56.570Z,3.65
2023-03-16T19:26:00.156Z,4.35
2023-03-16T19:31:30.492Z,3.45
2023-03-16T19:33:35.607Z,3.63
2023-03-16T19:35:50.993Z,3.35
2023-03-16T19:37:55.289Z,4.05
2023-03-16T19:42:00.557Z,3.50
2023-03-16T19:44:08.575Z,4.07
2023-03-16T19:46:14.446Z,5.00
2023-03-16T19:48:40.311Z,4.63
2023-03-16T19:50:44.564Z,5.13
2023-03-16T19:52:48.616Z,5.90
2023-03-16T19:54:52.638Z,5.25
2023-03-16T19:56:57.200Z,4.78
2023-03-16T19:59:00.763Z,5.50
2023-03-16T20:01:04.365Z,5.40
2023-03-16T20:03:10.483Z,5.50
2023-03-16T20:07:38.360Z,5.28
2023-03-16T20:09:41.853Z,4.00
2023-03-16T20:11:45.667Z,5.20
2023-03-16T20:13:49.386Z,4.63
2023-03-16T20:15:53.489Z,4.20
2023-03-16T20:17:57.933Z,5.22
2023-03-16T20:20:01.577Z,4.05
2023-03-16T20:22:57.768Z,4.70
2023-03-16T20:25:05.398Z,4.43
2023-03-16T20:27:11.662Z,4.47
2023-03-16T20:29:18.669Z,4.32
2023-03-16T20:32:01.403Z,5.03
2023-03-16T20:34:05.322Z,4.35
2023-03-16T20:36:11.409Z,5.05
2023-03-16T20:38:15.650Z,5.50
2023-03-16T20:40:21.288Z,5.43
2023-03-16T20:42:26.112Z,5.88
2023-03-16T20:44:30.453Z,5.55
2023-03-16T20:46:34.604Z,5.22
2023-03-16T20:48:38.340Z,5.45
2023-03-16T20:54:08.014Z,5.05
2023-03-16T20:56:18.016Z,4.80
2023-03-16T20:58:22.336Z,5.03
2023-03-16T21:00:29.352Z,5.82
2023-03-16T21:02:35.217Z,6.13
2023-03-16T21:04:42.773Z,4.90
2023-03-16T21:06:49.082Z,5.07
2023-03-16T21:08:53.071Z,5.57
2023-03-16T21:10:59.967Z,5.20
2023-03-16T21:13:07.457Z,5.50
2023-03-16T21:15:17.839Z,5.22
2023-03-16T21:17:25.310Z,5.13
2023-03-16T21:19:30.777Z,5.40
2023-03-16T21:21:34.360Z,5.40
2023-03-16T21:24:03.630Z,5.30
2023-03-16T21:26:07.467Z,5.63
2023-03-16T21:28:13.046Z,5.17
2023-03-16T21:30:22.739Z,5.30
2023-03-16T21:32:27.487Z,5.67
2023-03-16T21:34:33.860Z,6.00
2023-03-16T21:36:37.427Z,5.47
2023-03-16T21:39:54.341Z,5.57
2023-03-16T21:41:57.956Z,5.97
2023-03-16T21:44:03.602Z,5.70
2023-03-16T21:46:07.686Z,5.83
2023-03-16T21:48:14.331Z,5.83
2023-03-16T21:50:23.077Z,5.10
2023-03-16T21:52:28.033Z,5.93
2023-03-16T21:54:37.322Z,5.87
2023-03-16T21:56:40.811Z,5.47
2023-03-16T21:58:44.818Z,5.83
2023-03-16T22:00:51.063Z,6.03
2023-03-16T22:02:55.726Z,5.50
2023-03-16T22:05:54.187Z,5.60
2023-03-16T22:07:58.214Z,6.10
2023-03-16T22:10:02.066Z,5.87
2023-03-16T22:12:06.491Z,5.80
2023-03-16T22:14:10.071Z,6.33
2023-03-16T22:16:17.380Z,5.80
2023-03-16T22:18:29.096Z,5.83
2023-03-16T22:20:33.005Z,6.03
2023-03-16T22:22:36.509Z,6.20
2023-03-16T22:24:48.527Z,6.53
2023-03-16T22:26:52.130Z,6.43
2023-03-16T22:28:56.334Z,5.50
2023-03-16T22:31:00.973Z,6.30
2023-03-16T22:33:05.961Z,6.13
2023-03-16T22:35:11.366Z,6.40
2023-03-16T22:37:15.934Z,5.97
2023-03-16T22:39:19.534Z,5.83
2023-03-16T22:41:23.297Z,6.03
2023-03-16T22:43:29.877Z,6.27
2023-03-16T22:45:34.429Z,6.30
2023-03-16T22:47:39.261Z,6.70
2023-03-16T22:49:44.452Z,6.37
2023-03-16T22:51:48.209Z,6.87
2023-03-16T22:53:52.143Z,6.50
2023-03-16T22:58:09.891Z,6.23
2023-03-16T23:00:14.420Z,6.87
2023-03-16T23:02:18.097Z,6.97
2023-03-16T23:07:49.376Z,6.63
2023-03-16T23:09:53.029Z,6.67
2023-03-16T23:11:56.674Z,6.83
2023-03-16T23:14:00.988Z,6.67
2023-03-16T23:32:10.049Z,6.50
2023-03-16T23:34:14.257Z,6.50
2023-03-16T23:36:25.803Z,6.80
2023-03-16T23:38:29.264Z,6.53
2023-03-16T23:41:42.823Z,6.17
2023-03-16T23:43:49.093Z,6.40
2023-03-16T23:45:52.577Z,6.47
2023-03-16T23:47:57.819Z,6.67
2023-03-16T23:50:01.683Z,7.20
2023-03-16T23:52:05.420Z,6.57
2023-03-16T23:54:21.955Z,6.50
2023-03-16T23:56:25.371Z,6.50
2023-03-16T23:58:28.965Z,6.90
